createdAt,value
2023-05-05T00:00:23.379Z,50.94
2023-05-05T00:03:12.034Z,50.95
2023-05-05T00:05:43.990Z,51.20
2023-05-05T00:08:12.563Z,51.05
2023-05-05T00:10:42.888Z,51.30
2023-05-05T00:13:11.873Z,51.09
2023-05-05T00:15:44.999Z,51.44
2023-05-05T00:18:14.914Z,51.00
2023-05-05T00:20:47.637Z,51.00
2023-05-05T00:23:17.190Z,50.74
2023-05-05T00:25:46.270Z,51.20
2023-05-05T00:28:14.675Z,50.93
2023-05-05T00:30:43.742Z,51.15
2023-05-05T00:33:12.644Z,50.80
2023-05-05T00:35:41.462Z,51.05
2023-05-05T00:38:09.829Z,50.55
2023-05-05T00:40:38.621Z,51.03
2023-05-05T00:43:07.803Z,50.60
2023-05-05T00:45:37.978Z,50.83
2023-05-05T00:48:07.044Z,50.63
2023-05-05T00:50:36.905Z,50.75
2023-05-05T00:53:06.871Z,50.54
2023-05-05T00:55:35.814Z,50.81
2023-05-05T00:58:04.597Z,50.82
2023-05-05T01:00:33.184Z,50.78
2023-05-05T01:03:01.749Z,50.77
2023-05-05T01:05:42.026Z,50.67
2023-05-05T01:08:26.997Z,50.63
2023-05-05T01:10:59.259Z,51.13
2023-05-05T01:13:39.705Z,50.96
2023-05-05T01:16:28.962Z,50.72
2023-05-05T01:19:04.652Z,50.90
2023-05-05T01:21:41.464Z,50.80
2023-05-05T01:25:20.214Z,50.70
2023-05-05T01:28:08.770Z,50.93
2023-05-05T01:31:14.700Z,50.85
2023-05-05T01:33:55.538Z,50.64
2023-05-05T01:36:33.357Z,50.77
2023-05-05T01:39:03.373Z,50.76
2023-05-05T01:41:44.982Z,50.59
2023-05-05T01:44:16.718Z,50.78
2023-05-05T01:46:49.121Z,50.66
2023-05-05T01:49:17.965Z,50.95
2023-05-05T01:51:46.812Z,50.94
2023-05-05T01:54:17.761Z,50.83
2023-05-05T01:56:47.442Z,50.76
2023-05-05T01:59:17.196Z,50.57
2023-05-05T02:01:47.651Z,50.87
2023-05-05T02:04:18.503Z,50.72
2023-05-05T02:06:50.689Z,50.88
2023-05-05T02:09:19.848Z,50.89
2023-05-05T02:11:48.980Z,50.83
2023-05-05T02:14:20.178Z,51.04
2023-05-05T02:16:48.708Z,50.50
2023-05-05T02:19:19.663Z,50.75
2023-05-05T02:21:48.122Z,50.97
2023-05-05T02:24:16.693Z,51.01
2023-05-05T02:26:46.644Z,50.89
2023-05-05T02:29:20.605Z,50.92
2023-05-05T02:31:54.284Z,50.50
2023-05-05T02:34:28.785Z,50.64
2023-05-05T02:36:59.176Z,50.79
2023-05-05T02:39:44.115Z,50.67
2023-05-05T02:42:20.028Z,50.69
2023-05-05T02:44:51.303Z,50.83
2023-05-05T02:47:21.143Z,50.58
2023-05-05T02:49:52.266Z,50.72
2023-05-05T02:52:20.543Z,50.66
2023-05-05T02:54:49.655Z,50.59
2023-05-05T02:57:21.784Z,50.48
2023-05-05T03:00:15.252Z,50.53
2023-05-05T03:02:47.704Z,50.81
2023-05-05T03:05:24.534Z,50.60
2023-05-05T03:08:04.864Z,50.71
2023-05-05T03:10:40.823Z,50.36
2023-05-05T03:13:10.416Z,50.60
2023-05-05T03:15:48.637Z,50.36
2023-05-05T03:18:21.016Z,50.78
2023-05-05T03:20:56.451Z,50.32
2023-05-05T03:23:24.886Z,50.35
2023-05-05T03:25:58.640Z,50.77
2023-05-05T03:28:34.409Z,50.43
2023-05-05T03:31:09.044Z,50.35
2023-05-05T03:33:39.293Z,50.12
2023-05-05T03:36:08.840Z,50.19
2023-05-05T03:38:37.071Z,50.33
2023-05-05T03:41:06.360Z,50.18
2023-05-05T03:43:35.179Z,50.53
2023-05-05T03:46:04.217Z,50.44
2023-05-05T03:48:34.436Z,50.47
2023-05-05T03:51:03.157Z,50.33
2023-05-05T03:53:33.804Z,50.22
2023-05-05T03:56:06.024Z,50.25
2023-05-05T03:58:34.232Z,50.10
2023-05-05T04:01:04.461Z,50.55
2023-05-05T04:03:33.015Z,50.21
2023-05-05T04:06:02.715Z,50.18
2023-05-05T04:08:33.422Z,50.48
2023-05-05T04:11:04.639Z,50.35
2023-05-05T04:13:35.486Z,50.29
2023-05-05T04:16:04.599Z,50.32
2023-05-05T04:18:33.494Z,50.19
2023-05-05T04:21:01.931Z,50.08
2023-05-05T04:23:30.828Z,50.13
2023-05-05T04:25:59.226Z,50.40
2023-05-05T04:28:29.116Z,50.24
2023-05-05T04:30:57.775Z,50.46
2023-05-05T04:33:26.607Z,50.26
2023-05-05T04:35:54.995Z,50.18
2023-05-05T04:38:23.775Z,50.11
2023-05-05T04:40:52.671Z,49.94
2023-05-05T04:43:21.350Z,50.19
2023-05-05T04:45:56.855Z,50.21
2023-05-05T04:48:29.975Z,50.02
2023-05-05T04:50:58.308Z,49.74
2023-05-05T04:53:27.086Z,50.25
2023-05-05T04:55:55.776Z,50.11
2023-05-05T04:58:24.389Z,50.39
2023-05-05T05:00:52.773Z,50.12
2023-05-05T05:03:21.542Z,50.16
2023-05-05T05:05:50.354Z,49.95
2023-05-05T05:08:19.894Z,50.15
2023-05-05T05:10:48.366Z,50.27
2023-05-05T05:13:17.087Z,50.26
2023-05-05T05:15:45.837Z,50.17
2023-05-05T05:18:14.502Z,50.40
2023-05-05T05:20:43.008Z,50.16
2023-05-05T05:23:12.852Z,50.10
2023-05-05T05:25:44.614Z,50.94
2023-05-05T05:28:14.573Z,51.28
2023-05-05T05:30:48.725Z,52.06
2023-05-05T05:33:17.350Z,53.07
2023-05-05T05:35:46.453Z,53.25
2023-05-05T05:38:17.792Z,53.60
2023-05-05T05:40:47.142Z,53.54
2023-05-05T05:43:16.347Z,53.35
2023-05-05T05:45:44.898Z,53.40
2023-05-05T05:48:13.918Z,53.97
2023-05-05T05:50:42.272Z,53.89
2023-05-05T05:53:11.099Z,53.75
2023-05-05T05:55:39.480Z,53.23
2023-05-05T05:58:08.113Z,53.04
2023-05-05T06:00:36.535Z,52.85
2023-05-05T06:03:09.453Z,53.01
2023-05-05T06:05:40.232Z,52.94
2023-05-05T06:08:09.348Z,52.71
2023-05-05T06:10:42.781Z,53.23
2023-05-05T06:13:16.835Z,52.69
2023-05-05T06:15:48.686Z,52.83
2023-05-05T06:18:18.249Z,52.85
2023-05-05T06:20:50.095Z,52.69
2023-05-05T06:23:20.977Z,52.54
2023-05-05T06:25:55.840Z,52.59
2023-05-05T06:28:24.755Z,52.39
2023-05-05T06:30:53.019Z,52.63
2023-05-05T06:33:21.697Z,52.47
2023-05-05T06:35:52.194Z,52.61
2023-05-05T06:38:20.889Z,52.44
2023-05-05T06:40:52.263Z,52.46
2023-05-05T06:43:21.174Z,52.40
2023-05-05T06:45:55.512Z,52.94
2023-05-05T06:48:24.102Z,53.32
2023-05-05T06:50:52.411Z,53.22
2023-05-05T06:53:21.022Z,53.25
2023-05-05T06:55:49.304Z,53.56
2023-05-05T06:58:18.104Z,53.16
2023-05-05T07:00:46.539Z,53.15
2023-05-05T07:03:15.631Z,53.27
2023-05-05T07:05:44.034Z,53.70
2023-05-05T07:08:13.452Z,53.49
2023-05-05T07:10:42.089Z,53.51
2023-05-05T07:13:10.983Z,53.82
2023-05-05T07:15:46.705Z,52.10
2023-05-05T07:18:16.780Z,51.68
2023-05-05T07:20:45.073Z,51.49
2023-05-05T07:23:13.817Z,51.07
2023-05-05T07:25:42.165Z,51.29
2023-05-05T07:28:11.312Z,51.38
2023-05-05T07:30:39.576Z,51.23
2023-05-05T07:33:08.404Z,51.29
2023-05-05T07:35:36.996Z,51.61
2023-05-05T07:38:05.608Z,51.37
2023-05-05T07:40:34.909Z,51.40
2023-05-05T07:43:03.556Z,51.52
2023-05-05T07:45:31.972Z,51.50
2023-05-05T07:48:00.758Z,51.58
2023-05-05T07:50:29.049Z,51.89
2023-05-05T07:53:06.149Z,51.58
2023-05-05T07:55:42.092Z,51.56
2023-05-05T07:58:11.299Z,51.33
2023-05-05T08:00:40.024Z,51.07
2023-05-05T08:03:11.612Z,51.22
2023-05-05T08:05:43.571Z,51.57
2023-05-05T08:08:12.470Z,51.19
2023-05-05T08:10:40.690Z,51.13
2023-05-05T08:13:09.289Z,51.29
2023-05-05T08:15:37.624Z,51.03
2023-05-05T08:18:06.636Z,51.29
2023-05-05T08:20:36.404Z,50.88
2023-05-05T08:23:05.461Z,50.78
2023-05-05T08:25:33.684Z,50.73
2023-05-05T08:28:02.342Z,50.99
2023-05-05T08:30:30.927Z,50.79
2023-05-05T08:33:00.572Z,50.68
2023-05-05T08:35:28.917Z,51.36
2023-05-05T08:37:59.142Z,50.99
2023-05-05T08:40:33.975Z,51.02
2023-05-05T08:43:02.892Z,50.83
2023-05-05T08:45:31.372Z,50.54
2023-05-05T08:48:05.231Z,50.53
2023-05-05T08:50:33.611Z,50.38
2023-05-05T08:53:21.501Z,49.78
2023-05-05T08:55:56.299Z,48.54
2023-05-05T08:58:27.030Z,48.28
2023-05-05T09:00:57.709Z,48.03
2023-05-05T09:03:27.213Z,47.92
2023-05-05T09:05:56.131Z,47.83
2023-05-05T09:08:25.181Z,46.78
2023-05-05T09:10:55.320Z,46.24
2023-05-05T09:13:24.172Z,46.13
2023-05-05T09:15:52.317Z,45.79
2023-05-05T09:18:20.970Z,45.76
2023-05-05T09:20:49.277Z,45.57
2023-05-05T09:23:21.613Z,44.27
2023-05-05T09:26:06.201Z,44.14
2023-05-05T09:28:35.235Z,44.64
2023-05-05T09:31:14.278Z,44.92
2023-05-05T09:33:43.768Z,44.51
2023-05-05T09:36:12.458Z,44.08
2023-05-05T09:38:41.333Z,43.99
2023-05-05T09:41:09.511Z,43.23
2023-05-05T09:43:56.220Z,43.34
2023-05-05T09:46:24.576Z,43.71
2023-05-05T09:48:53.270Z,43.57
2023-05-05T09:51:32.186Z,43.64
2023-05-05T09:54:00.801Z,43.57
2023-05-05T09:56:40.981Z,43.91
2023-05-05T09:59:12.574Z,43.70
2023-05-05T10:01:43.852Z,43.74
2023-05-05T10:04:31.693Z,43.62
2023-05-05T10:07:00.087Z,43.58
2023-05-05T10:09:28.671Z,43.85
2023-05-05T10:11:58.548Z,43.92
2023-05-05T10:14:27.762Z,44.08
2023-05-05T10:16:56.644Z,44.13
2023-05-05T10:19:25.691Z,44.19
2023-05-05T10:22:00.096Z,43.69
2023-05-05T10:24:39.977Z,43.97
2023-05-05T10:27:16.587Z,44.35
2023-05-05T10:29:53.877Z,43.99
2023-05-05T10:32:51.962Z,43.88
2023-05-05T10:35:27.404Z,43.95
2023-05-05T10:37:57.917Z,44.15
2023-05-05T10:40:26.554Z,44.33
2023-05-05T10:42:55.504Z,43.80
2023-05-05T10:45:24.087Z,43.67
2023-05-05T10:47:53.436Z,43.79
2023-05-05T10:50:24.970Z,43.86
2023-05-05T10:52:55.995Z,43.96
2023-05-05T10:55:28.804Z,43.81
2023-05-05T10:57:57.086Z,43.69
2023-05-05T11:00:40.358Z,44.01
2023-05-05T11:03:17.497Z,43.81
2023-05-05T11:06:09.069Z,43.94
2023-05-05T11:08:38.996Z,44.04
2023-05-05T11:11:10.783Z,43.48
2023-05-05T11:13:40.105Z,43.93
2023-05-05T11:16:43.985Z,43.76
2023-05-05T11:19:44.888Z,43.85
2023-05-05T11:22:13.636Z,43.83
2023-05-05T11:24:42.513Z,43.85
2023-05-05T11:27:11.776Z,43.40
2023-05-05T11:30:09.914Z,43.37
2023-05-05T11:32:38.848Z,43.63
2023-05-05T11:35:07.929Z,43.50
2023-05-05T11:37:37.922Z,43.61
2023-05-05T11:40:24.513Z,43.22
2023-05-05T11:43:05.155Z,43.30
2023-05-05T11:45:33.564Z,42.85
2023-05-05T11:48:24.404Z,43.50
2023-05-05T11:50:52.863Z,43.40
2023-05-05T11:53:21.591Z,43.74
2023-05-05T11:55:49.908Z,43.68
2023-05-05T11:58:19.646Z,43.81
2023-05-05T12:00:48.285Z,44.29
2023-05-05T12:03:16.989Z,44.18
2023-05-05T12:06:05.118Z,44.54
2023-05-05T12:08:40.609Z,44.39
2023-05-05T12:11:10.435Z,44.59
2023-05-05T12:13:38.927Z,44.49
2023-05-05T12:16:13.685Z,44.58
2023-05-05T12:18:43.147Z,44.72
2023-05-05T12:21:18.131Z,44.76
2023-05-05T12:23:46.815Z,44.88
2023-05-05T12:26:31.741Z,44.81
2023-05-05T12:29:00.987Z,44.86
2023-05-05T12:31:40.080Z,44.77
2023-05-05T12:34:09.877Z,44.68
2023-05-05T12:36:39.002Z,44.47
2023-05-05T12:39:07.536Z,44.32
2023-05-05T12:41:36.115Z,44.58
2023-05-05T12:44:05.124Z,44.15
2023-05-05T12:46:48.272Z,43.09
2023-05-05T12:49:17.180Z,42.60
2023-05-05T12:51:55.971Z,42.92
2023-05-05T12:54:25.313Z,43.43
2023-05-05T12:56:53.439Z,42.59
2023-05-05T12:59:21.840Z,42.30
2023-05-05T13:01:54.726Z,42.33
2023-05-05T13:04:24.814Z,42.26
2023-05-05T13:07:16.070Z,42.21
2023-05-05T13:09:44.593Z,42.21
2023-05-05T13:12:12.893Z,42.05
2023-05-05T13:14:42.254Z,41.89
2023-05-05T13:17:11.992Z,41.62
2023-05-05T13:19:46.650Z,41.36
2023-05-05T13:22:14.928Z,41.61
2023-05-05T13:24:51.690Z,41.42
2023-05-05T13:27:21.207Z,41.21
2023-05-05T13:29:49.866Z,41.71
2023-05-05T13:32:17.986Z,41.90
2023-05-05T13:34:46.416Z,41.97
2023-05-05T13:37:14.684Z,42.10
2023-05-05T13:39:43.535Z,42.39
2023-05-05T13:42:11.640Z,42.04
2023-05-05T13:44:40.240Z,42.01
2023-05-05T13:47:08.851Z,42.19
2023-05-05T13:49:37.426Z,42.35
2023-05-05T13:52:06.201Z,42.45
2023-05-05T13:54:34.662Z,42.78
2023-05-05T13:57:03.588Z,42.35
2023-05-05T13:59:32.216Z,42.28
2023-05-05T14:02:01.419Z,41.91
2023-05-05T14:04:30.101Z,41.36
2023-05-05T14:06:58.777Z,41.58
2023-05-05T14:09:27.565Z,41.59
2023-05-05T14:11:55.672Z,41.25
2023-05-05T14:14:24.212Z,41.54
2023-05-05T14:16:52.469Z,41.25
2023-05-05T14:19:21.044Z,41.47
2023-05-05T14:21:49.254Z,41.72
2023-05-05T14:24:17.695Z,41.34
2023-05-05T14:26:45.802Z,41.43
2023-05-05T14:29:14.279Z,41.72
2023-05-05T14:31:42.438Z,41.66
2023-05-05T14:34:10.901Z,41.56
2023-05-05T14:36:39.092Z,41.02
2023-05-05T14:39:07.678Z,40.96
2023-05-05T14:41:35.981Z,41.12
2023-05-05T14:44:04.472Z,41.05
2023-05-05T14:46:32.836Z,40.17
2023-05-05T14:49:01.472Z,40.01
2023-05-05T14:51:29.700Z,40.20
2023-05-05T14:53:58.567Z,40.33
2023-05-05T14:56:26.758Z,40.04
2023-05-05T14:58:55.274Z,40.01
2023-05-05T15:01:25.170Z,39.93
2023-05-05T15:03:54.112Z,40.09
2023-05-05T15:06:22.336Z,40.26
2023-05-05T15:08:50.877Z,40.16
2023-05-05T15:11:19.064Z,39.67
2023-05-05T15:13:47.644Z,39.59
2023-05-05T15:16:15.857Z,39.58
2023-05-05T15:18:44.332Z,39.40
2023-05-05T15:21:12.472Z,39.62
2023-05-05T15:23:40.921Z,39.37
2023-05-05T15:26:09.021Z,39.77
2023-05-05T15:28:38.074Z,39.44
2023-05-05T15:31:06.492Z,39.61
2023-05-05T15:33:35.133Z,40.03
2023-05-05T15:36:03.287Z,39.93
2023-05-05T15:38:31.858Z,39.93
2023-05-05T15:41:00.163Z,39.68
2023-05-05T15:43:28.593Z,40.36
2023-05-05T15:45:56.698Z,39.52
2023-05-05T15:48:25.168Z,39.70
2023-05-05T15:50:53.329Z,40.09
2023-05-05T15:53:21.789Z,40.39
2023-05-05T15:55:49.910Z,40.10
2023-05-05T15:58:18.447Z,39.91
2023-05-05T16:00:46.577Z,40.16
2023-05-05T16:03:15.147Z,39.68
2023-05-05T16:05:43.602Z,40.02
2023-05-05T16:08:12.180Z,39.79
2023-05-05T16:10:40.749Z,39.84
2023-05-05T16:13:09.296Z,39.71
2023-05-05T16:15:37.590Z,39.33
2023-05-05T16:18:06.239Z,39.30
2023-05-05T16:20:34.409Z,38.89
2023-05-05T16:23:03.189Z,38.83
2023-05-05T16:25:31.341Z,38.66
2023-05-05T16:28:02.002Z,38.68
2023-05-05T16:30:30.204Z,38.39
2023-05-05T16:32:58.803Z,38.51
2023-05-05T16:35:27.125Z,38.54
2023-05-05T16:37:56.479Z,38.46
2023-05-05T16:40:24.657Z,38.64
2023-05-05T16:42:53.216Z,38.74
2023-05-05T16:45:21.456Z,38.83
2023-05-05T16:47:50.398Z,38.87
2023-05-05T16:50:18.624Z,39.01
2023-05-05T16:52:47.661Z,39.19
2023-05-05T16:55:15.990Z,39.11
2023-05-05T16:57:44.485Z,39.55
2023-05-05T17:00:13.407Z,39.70
2023-05-05T17:02:42.038Z,39.74
2023-05-05T17:05:10.700Z,39.94
2023-05-05T17:07:39.730Z,39.92
2023-05-05T17:10:08.536Z,39.99
2023-05-05T17:12:37.337Z,40.19
2023-05-05T17:15:06.593Z,40.31
2023-05-05T17:17:35.437Z,40.43
2023-05-05T17:20:05.290Z,39.79
2023-05-05T17:22:33.798Z,39.87
2023-05-05T17:25:02.108Z,39.70
2023-05-05T17:27:30.711Z,40.06
2023-05-05T17:29:59.020Z,40.02
2023-05-05T17:32:27.718Z,39.97
2023-05-05T17:34:56.587Z,40.43
2023-05-05T17:37:25.110Z,39.86
2023-05-05T17:39:53.361Z,39.75
2023-05-05T17:42:23.220Z,39.91
2023-05-05T17:44:51.571Z,40.24
2023-05-05T17:47:24.388Z,40.55
2023-05-05T17:49:54.366Z,40.93
2023-05-05T17:52:23.934Z,40.81
2023-05-05T17:54:52.595Z,41.23
2023-05-05T17:57:21.473Z,41.40
2023-05-05T17:59:50.364Z,41.76
2023-05-05T18:02:19.272Z,41.86
2023-05-05T18:04:47.526Z,41.94
2023-05-05T18:07:16.144Z,42.16
2023-05-05T18:09:44.279Z,42.38
2023-05-05T18:12:12.805Z,42.01
2023-05-05T18:14:41.097Z,41.83
2023-05-05T18:17:09.653Z,42.12
2023-05-05T18:19:39.197Z,42.23
2023-05-05T18:22:07.739Z,42.33
2023-05-05T18:24:36.032Z,42.46
2023-05-05T18:27:06.609Z,42.59
2023-05-05T18:29:36.172Z,42.58
2023-05-05T18:32:06.647Z,42.45
2023-05-05T18:34:35.022Z,42.94
2023-05-05T18:37:03.500Z,42.95
2023-05-05T18:39:31.768Z,43.46
2023-05-05T18:42:00.694Z,43.54
2023-05-05T18:44:29.327Z,43.42
2023-05-05T18:46:57.896Z,43.64
2023-05-05T18:49:27.654Z,43.78
2023-05-05T18:51:57.826Z,44.13
2023-05-05T18:54:26.067Z,44.28
2023-05-05T18:56:54.745Z,44.53
2023-05-05T18:59:23.016Z,44.24
2023-05-05T19:01:51.852Z,44.42
2023-05-05T19:04:30.587Z,44.40
2023-05-05T19:07:00.416Z,44.71
2023-05-05T19:09:28.781Z,44.98
2023-05-05T19:11:57.465Z,45.15
2023-05-05T19:14:27.612Z,45.27
2023-05-05T19:16:57.133Z,44.96
2023-05-05T19:19:27.026Z,45.37
2023-05-05T19:21:56.834Z,45.42
2023-05-05T19:24:26.341Z,45.65
2023-05-05T19:26:56.774Z,45.65
2023-05-05T19:29:25.227Z,45.73
2023-05-05T19:31:54.885Z,46.09
2023-05-05T19:34:26.930Z,46.15
2023-05-05T19:36:58.345Z,46.17
2023-05-05T19:39:28.513Z,46.28
2023-05-05T19:41:58.324Z,46.13
2023-05-05T19:44:28.113Z,46.23
2023-05-05T19:46:57.940Z,46.18
2023-05-05T19:49:27.660Z,46.48
2023-05-05T19:51:59.071Z,46.83
2023-05-05T19:54:27.937Z,46.91
2023-05-05T19:56:57.455Z,46.92
2023-05-05T19:59:25.684Z,47.01
2023-05-05T20:01:54.365Z,46.83
2023-05-05T20:04:22.678Z,47.24
2023-05-05T20:06:52.030Z,47.16
2023-05-05T20:09:20.293Z,47.15
2023-05-05T20:11:48.974Z,47.41
2023-05-05T20:14:17.447Z,47.38
2023-05-05T20:16:46.513Z,47.14
2023-05-05T20:19:14.777Z,47.39
2023-05-05T20:21:43.503Z,47.54
2023-05-05T20:24:11.773Z,47.43
2023-05-05T20:26:40.324Z,47.31
2023-05-05T20:29:08.626Z,47.36
2023-05-05T20:31:37.791Z,47.67
2023-05-05T20:34:06.310Z,47.74
2023-05-05T20:36:35.077Z,47.63
2023-05-05T20:39:03.399Z,47.98
2023-05-05T20:41:31.982Z,47.73
2023-05-05T20:44:00.163Z,47.55
2023-05-05T20:46:28.863Z,48.01
2023-05-05T20:48:57.042Z,47.84
2023-05-05T20:51:29.483Z,47.58
2023-05-05T20:53:58.169Z,47.53
2023-05-05T20:56:26.765Z,47.23
2023-05-05T20:58:56.802Z,47.39
2023-05-05T21:01:25.507Z,47.46
2023-05-05T21:03:53.816Z,47.22
2023-05-05T21:06:22.492Z,47.22
2023-05-05T21:08:50.722Z,47.30
2023-05-05T21:11:19.319Z,47.18
2023-05-05T21:13:47.606Z,47.17
2023-05-05T21:16:16.251Z,47.30
2023-05-05T21:18:46.966Z,47.18
2023-05-05T21:21:15.599Z,47.22
2023-05-05T21:23:46.996Z,47.13
2023-05-05T21:26:16.149Z,47.35
2023-05-05T21:28:44.376Z,47.45
2023-05-05T21:31:21.646Z,47.30
2023-05-05T21:33:50.786Z,47.08
2023-05-05T21:36:19.656Z,47.22
2023-05-05T21:38:47.968Z,46.95
2023-05-05T21:41:17.034Z,47.23
2023-05-05T21:43:45.329Z,47.46
2023-05-05T21:46:14.074Z,47.18
2023-05-05T21:48:42.372Z,47.16
2023-05-05T21:51:10.995Z,47.38
2023-05-05T21:53:40.339Z,47.50
2023-05-05T21:56:09.200Z,47.24
2023-05-05T21:58:37.469Z,47.35
2023-05-05T22:01:06.283Z,47.34
2023-05-05T22:03:35.481Z,47.24
2023-05-05T22:06:04.216Z,47.47
2023-05-05T22:08:32.451Z,47.61
2023-05-05T22:11:02.165Z,48.10
2023-05-05T22:13:30.439Z,47.36
2023-05-05T22:15:59.033Z,47.93
2023-05-05T22:18:27.349Z,47.66
2023-05-05T22:20:55.837Z,47.75
2023-05-05T22:23:24.168Z,48.04
2023-05-05T22:25:52.750Z,47.99
2023-05-05T22:28:24.109Z,47.60
2023-05-05T22:30:52.649Z,48.10
2023-05-05T22:33:20.914Z,48.02
2023-05-05T22:35:49.831Z,48.05
2023-05-05T22:38:18.194Z,47.72
2023-05-05T22:40:46.972Z,47.92
2023-05-05T22:43:15.288Z,48.29
2023-05-05T22:45:44.245Z,48.09
2023-05-05T22:48:12.605Z,48.10
2023-05-05T22:50:41.615Z,48.27
2023-05-05T22:53:09.840Z,48.20
2023-05-05T22:55:38.425Z,48.29
2023-05-05T22:58:06.701Z,48.25
2023-05-05T23:00:35.324Z,48.35
2023-05-05T23:03:03.644Z,48.23
2023-05-05T23:05:34.605Z,48.19
2023-05-05T23:08:03.525Z,48.43
2023-05-05T23:10:32.196Z,48.54
2023-05-05T23:13:00.599Z,48.63
2023-05-05T23:15:30.435Z,48.35
2023-05-05T23:17:58.766Z,48.31
2023-05-05T23:20:27.482Z,48.56
2023-05-05T23:22:56.031Z,48.21
2023-05-05T23:25:24.549Z,48.53
2023-05-05T23:27:53.094Z,48.73
2023-05-05T23:30:21.770Z,48.50
2023-05-05T23:32:50.007Z,48.56
2023-05-05T23:35:18.742Z,48.38
2023-05-05T23:37:47.024Z,48.46
2023-05-05T23:40:15.579Z,48.50
2023-05-05T23:42:43.795Z,48.52
2023-05-05T23:45:12.617Z,48.28
2023-05-05T23:47:41.016Z,48.36
2023-05-05T23:50:09.904Z,48.60
2023-05-05T23:52:38.093Z,48.44
2023-05-05T23:55:07.319Z,48.37
2023-05-05T23:57:36.351Z,48.46
